sensor_id;sensor_type;location;lat;lon;timestamp;temperature;humidity
21104;DHT22;10710;53.398;-1.514;2023-06-04T06:27:11;13.50;99.90
21104;DHT22;10710;53.398;-1.514;2023-06-04T06:29:56;13.30;99.90
21104;DHT22;10710;53.398;-1.514;2023-06-04T06:32:41;13.20;99.90
21104;DHT22;10710;53.398;-1.514;2023-06-04T06:35:25;13.30;99.90
21104;DHT22;10710;53.398;-1.514;2023-06-04T06:38:09;13.50;99.90
21104;DHT22;10710;53.398;-1.514;2023-06-04T06:40:53;13.50;99.90
21104;DHT22;10710;53.398;-1.514;2023-06-04T06:43:38;13.50;99.90
21104;DHT22;10710;53.398;-1.514;2023-06-04T06:46:22;13.80;99.90
21104;DHT22;10710;53.398;-1.514;2023-06-04T06:49:06;14.00;99.90
21104;DHT22;10710;53.398;-1.514;2023-06-04T06:51:50;14.10;99.90
21104;DHT22;10710;53.398;-1.514;2023-06-04T06:54:35;14.10;99.90
21104;DHT22;10710;53.398;-1.514;2023-06-04T06:57:19;14.10;99.90
21104;DHT22;10710;53.398;-1.514;2023-06-04T07:00:03;13.80;99.90
21104;DHT22;10710;53.398;-1.514;2023-06-04T07:02:49;13.70;99.90
21104;DHT22;10710;53.398;-1.514;2023-06-04T07:05:33;13.80;99.90
21104;DHT22;10710;53.398;-1.514;2023-06-04T07:08:17;13.90;99.90
21104;DHT22;10710;53.398;-1.514;2023-06-04T07:11:02;14.00;99.90
21104;DHT22;10710;53.398;-1.514;2023-06-04T07:13:47;14.10;99.90
21104;DHT22;10710;53.398;-1.514;2023-06-04T07:16:31;14.40;99.90
21104;DHT22;10710;53.398;-1.514;2023-06-04T07:19:15;14.10;99.90
21104;DHT22;10710;53.398;-1.514;2023-06-04T07:22:00;14.00;99.90
21104;DHT22;10710;53.398;-1.514;2023-06-04T07:24:44;14.00;99.90
21104;DHT22;10710;53.398;-1.514;2023-06-04T07:27:29;14.40;99.90
21104;DHT22;10710;53.398;-1.514;2023-06-04T07:30:14;14.80;99.90
21104;DHT22;10710;53.398;-1.514;2023-06-04T07:32:59;15.00;99.90
21104;DHT22;10710;53.398;-1.514;2023-06-04T07:35:43;15.10;99.90
21104;DHT22;10710;53.398;-1.514;2023-06-04T07:38:27;15.10;99.90
21104;DHT22;10710;53.398;-1.514;2023-06-04T07:41:11;15.20;99.90
21104;DHT22;10710;53.398;-1.514;2023-06-04T07:43:56;15.20;99.90
21104;DHT22;10710;53.398;-1.514;2023-06-04T07:46:41;14.80;99.90
21104;DHT22;10710;53.398;-1.514;2023-06-04T07:49:25;14.60;99.90
21104;DHT22;10710;53.398;-1.514;2023-06-04T07:52:11;14.40;99.90
21104;DHT22;10710;53.398;-1.514;2023-06-04T07:54:56;14.10;99.90
21104;DHT22;10710;53.398;-1.514;2023-06-04T07:57:40;14.10;99.90
21104;DHT22;10710;53.398;-1.514;2023-06-04T08:00:25;14.50;99.90
21104;DHT22;10710;53.398;-1.514;2023-06-04T08:03:10;14.80;99.90
21104;DHT22;10710;53.398;-1.514;2023-06-04T08:05:55;14.90;99.90
21104;DHT22;10710;53.398;-1.514;2023-06-04T08:08:42;15.30;99.90
21104;DHT22;10710;53.398;-1.514;2023-06-04T08:11:28;15.40;99.90
21104;DHT22;10710;53.398;-1.514;2023-06-04T08:14:12;15.40;99.90
21104;DHT22;10710;53.398;-1.514;2023-06-04T08:16:57;15.40;99.90
21104;DHT22;10710;53.398;-1.514;2023-06-04T08:19:42;15.30;99.90
21104;DHT22;10710;53.398;-1.514;2023-06-04T08:22:26;15.20;99.90
21104;DHT22;10710;53.398;-1.514;2023-06-04T08:25:13;15.30;99.90
21104;DHT22;10710;53.398;-1.514;2023-06-04T08:27:57;15.60;99.90
21104;DHT22;10710;53.398;-1.514;2023-06-04T08:30:42;16.00;99.90
21104;DHT22;10710;53.398;-1.514;2023-06-04T08:33:27;16.40;99.90
21104;DHT22;10710;53.398;-1.514;2023-06-04T08:36:11;16.40;99.90
21104;DHT22;10710;53.398;-1.514;2023-06-04T08:38:55;16.60;99.90
21104;DHT22;10710;53.398;-1.514;2023-06-04T08:41:46;16.30;99.90
21104;DHT22;10710;53.398;-1.514;2023-06-04T08:44:32;16.10;99.90
21104;DHT22;10710;53.398;-1.514;2023-06-04T08:47:21;16.10;99.90
21104;DHT22;10710;53.398;-1.514;2023-06-04T08:50:10;16.30;99.90
21104;DHT22;10710;53.398;-1.514;2023-06-04T08:52:56;16.30;99.90
21104;DHT22;10710;53.398;-1.514;2023-06-04T08:55:40;16.30;99.90
21104;DHT22;10710;53.398;-1.514;2023-06-04T08:58:25;16.40;99.90
21104;DHT22;10710;53.398;-1.514;2023-06-04T09:01:10;16.50;99.90
21104;DHT22;10710;53.398;-1.514;2023-06-04T09:03:55;17.10;99.90
21104;DHT22;10710;53.398;-1.514;2023-06-04T09:06:42;17.20;99.90
21104;DHT22;10710;53.398;-1.514;2023-06-04T09:09:27;17.70;99.90
21104;DHT22;10710;53.398;-1.514;2023-06-04T09:12:21;17.70;99.90
21104;DHT22;10710;53.398;-1.514;2023-06-04T09:15:07;18.10;99.90
21104;DHT22;10710;53.398;-1.514;2023-06-04T09:17:52;18.00;99.90
21104;DHT22;10710;53.398;-1.514;2023-06-04T09:20:35;17.80;99.90
21104;DHT22;10710;53.398;-1.514;2023-06-04T09:23:23;17.60;99.90
21104;DHT22;10710;53.398;-1.514;2023-06-04T09:26:08;17.40;99.90
21104;DHT22;10710;53.398;-1.514;2023-06-04T09:28:52;17.50;99.90
21104;DHT22;10710;53.398;-1.514;2023-06-04T09:31:39;17.70;99.90
21104;DHT22;10710;53.398;-1.514;2023-06-04T09:34:28;17.80;99.90
21104;DHT22;10710;53.398;-1.514;2023-06-04T09:37:16;18.00;99.90
21104;DHT22;10710;53.398;-1.514;2023-06-04T09:40:04;18.40;99.90
21104;DHT22;10710;53.398;-1.514;2023-06-04T09:42:51;18.50;99.90
21104;DHT22;10710;53.398;-1.514;2023-06-04T09:45:39;18.60;99.90
21104;DHT22;10710;53.398;-1.514;2023-06-04T09:48:24;18.20;99.90
21104;DHT22;10710;53.398;-1.514;2023-06-04T09:51:14;18.20;99.90
21104;DHT22;10710;53.398;-1.514;2023-06-04T09:54:05;18.20;99.90
21104;DHT22;10710;53.398;-1.514;2023-06-04T09:56:49;18.40;99.90
21104;DHT22;10710;53.398;-1.514;2023-06-04T09:59:39;18.40;99.90
21104;DHT22;10710;53.398;-1.514;2023-06-04T10:02:26;18.60;99.90
21104;DHT22;10710;53.398;-1.514;2023-06-04T10:05:14;18.60;99.90
21104;DHT22;10710;53.398;-1.514;2023-06-04T10:08:03;18.30;99.90
21104;DHT22;10710;53.398;-1.514;2023-06-04T10:10:50;18.20;99.90
21104;DHT22;10710;53.398;-1.514;2023-06-04T10:13:45;18.20;99.90
21104;DHT22;10710;53.398;-1.514;2023-06-04T10:16:32;18.40;99.90
21104;DHT22;10710;53.398;-1.514;2023-06-04T10:19:17;18.50;99.90
21104;DHT22;10710;53.398;-1.514;2023-06-04T10:22:04;18.60;99.90
21104;DHT22;10710;53.398;-1.514;2023-06-04T10:24:49;18.50;99.90
21104;DHT22;10710;53.398;-1.514;2023-06-04T10:27:34;18.20;99.90
21104;DHT22;10710;53.398;-1.514;2023-06-04T10:30:21;17.90;99.90
21104;DHT22;10710;53.398;-1.514;2023-06-04T10:33:05;17.80;99.90
21104;DHT22;10710;53.398;-1.514;2023-06-04T10:35:52;17.70;99.90
21104;DHT22;10710;53.398;-1.514;2023-06-04T10:38:45;17.60;99.90
21104;DHT22;10710;53.398;-1.514;2023-06-04T10:41:29;17.70;99.90
21104;DHT22;10710;53.398;-1.514;2023-06-04T10:44:15;17.70;99.90
21104;DHT22;10710;53.398;-1.514;2023-06-04T10:46:59;17.70;99.90
21104;DHT22;10710;53.398;-1.514;2023-06-04T10:49:43;17.90;99.90
21104;DHT22;10710;53.398;-1.514;2023-06-04T10:52:27;18.10;99.90
21104;DHT22;10710;53.398;-1.514;2023-06-04T10:55:12;18.40;99.90
21104;DHT22;10710;53.398;-1.514;2023-06-04T10:57:57;18.50;99.90
21104;DHT22;10710;53.398;-1.514;2023-06-04T11:00:43;18.80;99.90
21104;DHT22;10710;53.398;-1.514;2023-06-04T11:03:36;18.70;99.90
21104;DHT22;10710;53.398;-1.514;2023-06-04T11:06:22;18.60;99.90
21104;DHT22;10710;53.398;-1.514;2023-06-04T11:09:06;18.30;99.90
21104;DHT22;10710;53.398;-1.514;2023-06-04T11:11:58;18.00;99.90
21104;DHT22;10710;53.398;-1.514;2023-06-04T11:14:57;17.60;99.90
21104;DHT22;10710;53.398;-1.514;2023-06-04T11:17:54;17.50;99.90
21104;DHT22;10710;53.398;-1.514;2023-06-04T11:20:39;17.70;99.90
21104;DHT22;10710;53.398;-1.514;2023-06-04T11:23:24;18.10;99.90
21104;DHT22;10710;53.398;-1.514;2023-06-04T11:26:09;18.70;99.90
21104;DHT22;10710;53.398;-1.514;2023-06-04T11:28:53;19.30;99.90
21104;DHT22;10710;53.398;-1.514;2023-06-04T11:34:28;19.90;99.90
21104;DHT22;10710;53.398;-1.514;2023-06-04T11:37:13;19.80;99.90
21104;DHT22;10710;53.398;-1.514;2023-06-04T11:39:57;19.90;99.90
21104;DHT22;10710;53.398;-1.514;2023-06-04T11:42:41;19.90;99.90
21104;DHT22;10710;53.398;-1.514;2023-06-04T11:45:30;20.00;99.90
21104;DHT22;10710;53.398;-1.514;2023-06-04T11:48:16;20.20;99.90
21104;DHT22;10710;53.398;-1.514;2023-06-04T11:51:06;20.40;99.90
21104;DHT22;10710;53.398;-1.514;2023-06-04T11:53:51;20.40;99.90
21104;DHT22;10710;53.398;-1.514;2023-06-04T11:56:36;20.60;99.90
21104;DHT22;10710;53.398;-1.514;2023-06-04T11:59:20;20.50;99.90
21104;DHT22;10710;53.398;-1.514;2023-06-04T12:02:07;20.20;99.90
21104;DHT22;10710;53.398;-1.514;2023-06-04T12:04:51;19.90;99.90
21104;DHT22;10710;53.398;-1.514;2023-06-04T12:07:38;20.30;99.90
21104;DHT22;10710;53.398;-1.514;2023-06-04T12:10:22;20.40;99.90
21104;DHT22;10710;53.398;-1.514;2023-06-04T12:13:08;20.60;99.90
21104;DHT22;10710;53.398;-1.514;2023-06-04T12:15:53;20.90;99.90
21104;DHT22;10710;53.398;-1.514;2023-06-04T12:18:37;20.90;99.90
21104;DHT22;10710;53.398;-1.514;2023-06-04T12:21:24;20.50;99.90
21104;DHT22;10710;53.398;-1.514;2023-06-04T12:24:13;20.30;99.90
21104;DHT22;10710;53.398;-1.514;2023-06-04T12:27:09;19.70;99.90
21104;DHT22;10710;53.398;-1.514;2023-06-04T12:30:04;19.80;99.90
21104;DHT22;10710;53.398;-1.514;2023-06-04T12:32:50;19.90;99.90
21104;DHT22;10710;53.398;-1.514;2023-06-04T12:35:35;19.90;99.90
21104;DHT22;10710;53.398;-1.514;2023-06-04T12:38:19;20.10;99.90
21104;DHT22;10710;53.398;-1.514;2023-06-04T12:41:04;19.90;99.90
21104;DHT22;10710;53.398;-1.514;2023-06-04T12:43:48;19.80;99.90
21104;DHT22;10710;53.398;-1.514;2023-06-04T12:46:33;20.00;99.90
21104;DHT22;10710;53.398;-1.514;2023-06-04T12:49:17;20.00;99.90
21104;DHT22;10710;53.398;-1.514;2023-06-04T12:52:01;19.50;99.90
21104;DHT22;10710;53.398;-1.514;2023-06-04T12:54:46;19.20;99.90
21104;DHT22;10710;53.398;-1.514;2023-06-04T12:57:30;19.30;99.90
21104;DHT22;10710;53.398;-1.514;2023-06-04T13:00:14;19.40;99.90
21104;DHT22;10710;53.398;-1.514;2023-06-04T13:03:00;19.80;99.90
21104;DHT22;10710;53.398;-1.514;2023-06-04T13:05:44;20.10;99.90
21104;DHT22;10710;53.398;-1.514;2023-06-04T13:08:29;20.20;99.90
21104;DHT22;10710;53.398;-1.514;2023-06-04T13:11:13;20.20;99.90
21104;DHT22;10710;53.398;-1.514;2023-06-04T13:13:57;20.60;99.90
21104;DHT22;10710;53.398;-1.514;2023-06-04T13:16:41;21.20;99.90
21104;DHT22;10710;53.398;-1.514;2023-06-04T13:19:25;21.50;99.90
21104;DHT22;10710;53.398;-1.514;2023-06-04T13:22:09;22.30;99.90
21104;DHT22;10710;53.398;-1.514;2023-06-04T13:24:54;23.20;99.90
21104;DHT22;10710;53.398;-1.514;2023-06-04T13:27:40;23.80;99.90
21104;DHT22;10710;53.398;-1.514;2023-06-04T13:30:25;24.40;99.90
21104;DHT22;10710;53.398;-1.514;2023-06-04T13:33:09;24.60;99.90
21104;DHT22;10710;53.398;-1.514;2023-06-04T13:35:54;25.20;99.90
21104;DHT22;10710;53.398;-1.514;2023-06-04T13:38:38;24.90;99.90
21104;DHT22;10710;53.398;-1.514;2023-06-04T13:41:25;25.40;99.90
21104;DHT22;10710;53.398;-1.514;2023-06-04T13:44:10;25.70;99.90
21104;DHT22;10710;53.398;-1.514;2023-06-04T13:46:54;26.20;99.90
21104;DHT22;10710;53.398;-1.514;2023-06-04T13:49:39;26.10;99.90
21104;DHT22;10710;53.398;-1.514;2023-06-04T13:52:27;25.70;99.90
21104;DHT22;10710;53.398;-1.514;2023-06-04T13:55:13;25.70;99.90
21104;DHT22;10710;53.398;-1.514;2023-06-04T13:57:57;25.70;99.90
21104;DHT22;10710;53.398;-1.514;2023-06-04T14:00:41;26.20;99.90
21104;DHT22;10710;53.398;-1.514;2023-06-04T14:03:26;27.10;99.90
21104;DHT22;10710;53.398;-1.514;2023-06-04T14:06:11;26.60;99.90
21104;DHT22;10710;53.398;-1.514;2023-06-04T14:08:55;26.60;99.90
21104;DHT22;10710;53.398;-1.514;2023-06-04T14:11:39;26.60;99.90
21104;DHT22;10710;53.398;-1.514;2023-06-04T14:14:24;26.80;99.90
21104;DHT22;10710;53.398;-1.514;2023-06-04T14:17:08;26.50;99.90
21104;DHT22;10710;53.398;-1.514;2023-06-04T14:19:53;27.10;99.90
21104;DHT22;10710;53.398;-1.514;2023-06-04T14:22:38;27.90;99.90
21104;DHT22;10710;53.398;-1.514;2023-06-04T14:25:22;28.20;99.90
21104;DHT22;10710;53.398;-1.514;2023-06-04T14:28:06;28.00;99.90
21104;DHT22;10710;53.398;-1.514;2023-06-04T14:30:51;28.30;99.90
21104;DHT22;10710;53.398;-1.514;2023-06-04T14:33:36;28.10;99.90
21104;DHT22;10710;53.398;-1.514;2023-06-04T14:36:21;27.30;99.90
21104;DHT22;10710;53.398;-1.514;2023-06-04T14:39:06;26.90;99.90
21104;DHT22;10710;53.398;-1.514;2023-06-04T14:41:50;26.80;99.90
21104;DHT22;10710;53.398;-1.514;2023-06-04T14:44:36;27.00;99.90
21104;DHT22;10710;53.398;-1.514;2023-06-04T14:47:20;26.90;99.90
21104;DHT22;10710;53.398;-1.514;2023-06-04T14:50:05;27.50;99.90
21104;DHT22;10710;53.398;-1.514;2023-06-04T14:52:50;27.90;99.90
21104;DHT22;10710;53.398;-1.514;2023-06-04T14:55:36;28.40;99.90
21104;DHT22;10710;53.398;-1.514;2023-06-04T14:58:21;29.10;99.90
21104;DHT22;10710;53.398;-1.514;2023-06-04T15:01:06;28.80;99.90
21104;DHT22;10710;53.398;-1.514;2023-06-04T15:03:51;28.80;99.90
21104;DHT22;10710;53.398;-1.514;2023-06-04T15:06:35;29.10;99.90
21104;DHT22;10710;53.398;-1.514;2023-06-04T15:09:20;29.40;99.90
21104;DHT22;10710;53.398;-1.514;2023-06-04T15:12:05;29.50;99.90
21104;DHT22;10710;53.398;-1.514;2023-06-04T15:14:49;29.90;99.90
21104;DHT22;10710;53.398;-1.514;2023-06-04T15:17:35;29.70;99.90
21104;DHT22;10710;53.398;-1.514;2023-06-04T15:20:20;30.20;99.20
21104;DHT22;10710;53.398;-1.514;2023-06-04T15:23:04;29.70;99.40
21104;DHT22;10710;53.398;-1.514;2023-06-04T15:25:49;29.10;99.90
21104;DHT22;10710;53.398;-1.514;2023-06-04T15:28:34;29.00;99.90
21104;DHT22;10710;53.398;-1.514;2023-06-04T15:31:18;28.80;99.50
21104;DHT22;10710;53.398;-1.514;2023-06-04T16:28:03;30.40;98.90
21104;DHT22;10710;53.398;-1.514;2023-06-04T16:30:47;30.50;96.50
21104;DHT22;10710;53.398;-1.514;2023-06-04T16:33:32;29.80;96.70
21104;DHT22;10710;53.398;-1.514;2023-06-04T16:36:16;29.60;98.50
21104;DHT22;10710;53.398;-1.514;2023-06-04T16:39:01;29.70;99.20
21104;DHT22;10710;53.398;-1.514;2023-06-04T16:41:46;29.40;98.90
21104;DHT22;10710;53.398;-1.514;2023-06-04T16:44:30;28.50;99.90
21104;DHT22;10710;53.398;-1.514;2023-06-04T16:47:14;28.00;99.90
21104;DHT22;10710;53.398;-1.514;2023-06-04T16:49:59;27.80;99.90
21104;DHT22;10710;53.398;-1.514;2023-06-04T16:52:44;28.50;99.60
21104;DHT22;10710;53.398;-1.514;2023-06-04T16:55:30;28.00;99.90
21104;DHT22;10710;53.398;-1.514;2023-06-04T16:58:15;28.20;99.90
21104;DHT22;10710;53.398;-1.514;2023-06-04T17:01:00;28.60;99.90
21104;DHT22;10710;53.398;-1.514;2023-06-04T17:03:44;28.40;99.70
21104;DHT22;10710;53.398;-1.514;2023-06-04T17:06:28;27.20;99.90
21104;DHT22;10710;53.398;-1.514;2023-06-04T17:09:13;26.30;99.90
21104;DHT22;10710;53.398;-1.514;2023-06-04T17:11:57;25.00;99.90
21104;DHT22;10710;53.398;-1.514;2023-06-04T17:14:41;24.80;99.90
21104;DHT22;10710;53.398;-1.514;2023-06-04T17:17:26;25.50;99.90
21104;DHT22;10710;53.398;-1.514;2023-06-04T17:20:11;26.20;99.90
21104;DHT22;10710;53.398;-1.514;2023-06-04T17:22:59;27.20;99.90
21104;DHT22;10710;53.398;-1.514;2023-06-04T17:25:46;27.70;99.90
21104;DHT22;10710;53.398;-1.514;2023-06-04T17:28:31;27.90;99.90
21104;DHT22;10710;53.398;-1.514;2023-06-04T17:31:15;27.00;99.90
21104;DHT22;10710;53.398;-1.514;2023-06-04T17:34:02;25.50;99.90
21104;DHT22;10710;53.398;-1.514;2023-06-04T17:36:46;24.00;99.90
21104;DHT22;10710;53.398;-1.514;2023-06-04T17:39:31;23.50;99.90
21104;DHT22;10710;53.398;-1.514;2023-06-04T17:42:18;23.10;99.90
21104;DHT22;10710;53.398;-1.514;2023-06-04T17:45:04;22.60;99.90
21104;DHT22;10710;53.398;-1.514;2023-06-04T17:47:51;22.20;99.90
21104;DHT22;10710;53.398;-1.514;2023-06-04T17:50:36;22.00;99.90
